Time;durP1;ratioP1;P1;durP2;ratioP2;P2;SDS_P1;SDS_P2;PMS_P1;PMS_P2;Temp;Humidity;BMP_temperature;BMP_pressure;BME280_temperature;BME280_humidity;BME280_pressure;Samples;Min_cycle;Max_cycle;Signal;HPM_P1;HPM_P2
2023/04/30 00:01:33;;;;;;;7.40;4.68;;;11.40;8.70;;;;;;7366785;19;20015;-72
2023/04/30 00:04:03;;;;;;;6.40;4.72;;;11.40;8.70;;;;;;7391129;19;20041;-72
2023/04/30 00:06:33;;;;;;;6.80;4.82;;;11.30;8.70;;;;;;7368436;19;20089;-73
2023/04/30 00:09:06;;;;;;;7.20;4.95;;;11.30;9.10;;;;;;7368432;19;20097;-72
2023/04/30 00:11:35;;;;;;;6.72;5.07;;;11.30;9.50;;;;;;7368860;19;20017;-72
2023/04/30 00:14:06;;;;;;;6.68;5.13;;;11.30;8.80;;;;;;7369156;19;20010;-73
2023/04/30 00:16:35;;;;;;;7.35;5.55;;;11.30;8.70;;;;;;7366697;19;20034;-72
2023/04/30 00:19:05;;;;;;;8.30;5.05;;;11.30;8.70;;;;;;7390957;19;20411;-73
2023/04/30 00:21:35;;;;;;;7.35;5.63;;;11.30;8.60;;;;;;7367715;19;20014;-72
2023/04/30 00:24:08;;;;;;;6.95;5.55;;;11.40;8.30;;;;;;7367058;19;20021;-72
2023/04/30 00:26:38;;;;;;;8.75;5.82;;;11.30;6.20;;;;;;7365247;19;20006;-72
2023/04/30 00:29:08;;;;;;;7.50;5.88;;;11.30;6.70;;;;;;7368352;19;20014;-71
2023/04/30 00:31:38;;;;;;;8.00;5.50;;;11.30;7.20;;;;;;7368128;19;20007;-72
2023/04/30 00:34:08;;;;;;;6.72;5.50;;;11.30;6.40;;;;;;7390133;19;20358;-71
2023/04/30 00:36:38;;;;;;;7.57;5.68;;;11.30;5.40;;;;;;7370515;19;20013;-71
2023/04/30 00:39:11;;;;;;;6.82;5.50;;;11.30;5.70;;;;;;7375001;19;20485;-72
2023/04/30 00:41:42;;;;;;;8.80;5.78;;;11.30;5.60;;;;;;7374961;19;20014;-72
2023/04/30 00:44:11;;;;;;;7.57;6.00;;;11.30;6.30;;;;;;7374783;19;20018;-72
2023/04/30 00:46:41;;;;;;;7.18;5.82;;;11.30;6.00;;;;;;7373795;19;20010;-72
2023/04/30 00:49:12;;;;;;;8.23;6.63;;;11.30;6.70;;;;;;7375185;19;20047;-72
2023/04/30 00:51:42;;;;;;;8.50;6.43;;;11.20;6.30;;;;;;7397339;19;20010;-72
2023/04/30 00:54:15;;;;;;;9.90;6.22;;;11.20;6.60;;;;;;7374973;19;20010;-72
2023/04/30 00:56:45;;;;;;;9.63;7.38;;;11.20;7.00;;;;;;7373580;19;20015;-73
2023/04/30 00:59:16;;;;;;;8.07;6.55;;;11.20;6.00;;;;;;7372465;19;20016;-73
2023/04/30 01:01:46;;;;;;;9.43;7.10;;;11.20;5.40;;;;;;7374765;19;20014;-73
2023/04/30 01:04:16;;;;;;;10.05;7.20;;;11.30;5.70;;;;;;7375122;19;20011;-73
2023/04/30 01:06:46;;;;;;;9.93;7.05;;;11.20;4.60;;;;;;7395356;19;20010;-73
2023/04/30 01:09:19;;;;;;;11.05;6.80;;;11.30;3.90;;;;;;7373221;19;20002;-73
2023/04/30 01:12:00;;;;;;;9.85;6.82;;;11.20;4.10;;;;;;7375232;19;20045;-73
2023/04/30 01:14:34;;;;;;;13.05;7.32;;;11.20;5.20;;;;;;7372733;19;20007;-73
2023/04/30 01:17:10;;;;;;;9.23;7.20;;;11.20;5.00;;;;;;7374608;19;20014;-73
2023/04/30 01:19:43;;;;;;;9.05;6.60;;;11.20;5.10;;;;;;7372109;19;20015;-73
2023/04/30 01:22:26;;;;;;;8.73;6.65;;;11.10;5.40;;;;;;7372565;19;20025;-71
2023/04/30 01:25:12;;;;;;;10.05;7.10;;;11.10;5.80;;;;;;7393835;19;20077;-72
2023/04/30 01:28:10;;;;;;;10.13;6.97;;;11.10;5.90;;;;;;7374740;19;20014;-72
2023/04/30 01:30:40;;;;;;;10.15;7.10;;;11.10;6.40;;;;;;7372438;19;20097;-72
2023/04/30 01:33:10;;;;;;;11.68;8.13;;;11.10;7.10;;;;;;7374503;19;20003;-72
2023/04/30 01:36:03;;;;;;;9.43;7.45;;;11.10;6.90;;;;;;7371531;19;20079;-72
2023/04/30 01:38:50;;;;;;;10.68;7.20;;;11.00;7.30;;;;;;7373236;19;20425;-73
2023/04/30 01:41:31;;;;;;;11.10;7.78;;;11.10;8.50;;;;;;7372212;19;20017;-73
2023/04/30 01:44:14;;;;;;;9.57;7.70;;;11.10;7.90;;;;;;7373610;19;20498;-72
2023/04/30 01:46:48;;;;;;;10.85;8.13;;;11.10;8.20;;;;;;7371491;19;20410;-72
2023/04/30 01:49:33;;;;;;;9.88;7.72;;;11.10;8.40;;;;;;7371079;19;20479;-72
2023/04/30 01:52:11;;;;;;;10.93;8.15;;;11.00;8.00;;;;;;7395886;19;20014;-72
2023/04/30 01:54:50;;;;;;;9.65;7.72;;;11.00;8.30;;;;;;7371514;19;20036;-72
2023/04/30 01:57:30;;;;;;;10.38;7.97;;;11.00;8.00;;;;;;7373716;19;20006;-72
2023/04/30 02:00:04;;;;;;;10.45;7.95;;;11.00;7.60;;;;;;7370845;19;20071;-72
2023/04/30 02:02:34;;;;;;;11.73;8.48;;;10.90;8.20;;;;;;7372822;19;20015;-72
2023/04/30 02:05:04;;;;;;;13.20;9.13;;;10.90;7.20;;;;;;7370943;19;20723;-72
2023/04/30 02:07:42;;;;;;;11.82;7.80;;;10.90;7.40;;;;;;7373523;19;20066;-72
2023/04/30 02:10:13;;;;;;;11.50;9.00;;;10.90;7.30;;;;;;7371647;19;20014;-71
2023/04/30 02:12:43;;;;;;;11.30;7.88;;;10.90;6.90;;;;;;7394887;19;20015;-73
2023/04/30 02:15:16;;;;;;;12.57;8.00;;;10.80;6.90;;;;;;7370581;19;20019;-71
2023/04/30 02:17:46;;;;;;;11.15;8.88;;;10.80;7.00;;;;;;7371043;19;20010;-73
2023/04/30 02:20:17;;;;;;;11.63;9.15;;;10.90;7.10;;;;;;7372091;19;20470;-72
2023/04/30 02:22:47;;;;;;;12.23;8.63;;;10.90;7.20;;;;;;7371468;19;20031;-73
2023/04/30 02:25:17;;;;;;;11.43;8.27;;;10.80;7.50;;;;;;7370888;19;20427;-72
2023/04/30 02:27:49;;;;;;;12.40;8.77;;;10.90;7.60;;;;;;7394077;19;20090;-72
2023/04/30 02:30:21;;;;;;;13.90;8.70;;;10.80;7.50;;;;;;7370398;19;20002;-72
2023/04/30 02:32:51;;;;;;;11.88;8.82;;;10.70;7.60;;;;;;7372398;19;20529;-72
2023/04/30 02:35:21;;;;;;;11.73;8.65;;;10.80;7.30;;;;;;7370431;19;20537;-72
2023/04/30 02:37:51;;;;;;;13.73;9.05;;;10.80;8.00;;;;;;7371698;19;20064;-74
2023/04/30 02:40:21;;;;;;;11.52;9.65;;;10.70;7.40;;;;;;7370855;19;20018;-72
2023/04/30 02:42:52;;;;;;;9.95;8.25;;;10.70;7.80;;;;;;7392413;19;20021;-72
2023/04/30 02:45:25;;;;;;;11.07;8.65;;;10.80;8.30;;;;;;7369774;19;20002;-72
2023/04/30 02:47:55;;;;;;;10.07;8.77;;;10.70;7.90;;;;;;7371107;19;20011;-72
2023/04/30 02:50:25;;;;;;;12.52;9.20;;;10.70;7.70;;;;;;7371220;19;20440;-72
2023/04/30 02:52:55;;;;;;;11.15;8.93;;;10.60;6.60;;;;;;7372090;19;20533;-72
2023/04/30 02:55:24;;;;;;;11.50;8.55;;;10.60;7.00;;;;;;7369416;19;20411;-72
2023/04/30 02:57:55;;;;;;;13.77;10.18;;;10.70;6.90;;;;;;7393152;19;20423;-72
2023/04/30 03:00:27;;;;;;;11.73;9.52;;;10.70;6.90;;;;;;7368905;19;20010;-72
2023/04/30 03:02:57;;;;;;;12.60;9.02;;;10.70;6.90;;;;;;7369579;19;20070;-72
2023/04/30 03:05:27;;;;;;;14.30;9.20;;;10.70;7.10;;;;;;7370112;19;20077;-73
2023/04/30 03:07:57;;;;;;;11.95;9.32;;;10.70;7.20;;;;;;7371586;19;20007;-70
2023/04/30 03:10:27;;;;;;;13.43;9.65;;;10.60;7.00;;;;;;7369604;19;20014;-72
2023/04/30 03:12:57;;;;;;;11.88;9.52;;;10.70;6.60;;;;;;7391558;19;20018;-72
2023/04/30 03:15:29;;;;;;;10.30;8.30;;;10.70;6.50;;;;;;7368862;19;20017;-73
2023/04/30 03:17:59;;;;;;;12.63;9.27;;;10.70;6.70;;;;;;7370806;19;20018;-73
2023/04/30 03:20:29;;;;;;;13.38;9.55;;;10.70;6.80;;;;;;7370215;19;20488;-73
2023/04/30 03:22:59;;;;;;;13.30;10.10;;;10.70;7.10;;;;;;7370568;19;20101;-72
2023/04/30 03:25:29;;;;;;;13.95;10.45;;;10.70;7.30;;;;;;7367751;19;20047;-71
2023/04/30 03:27:59;;;;;;;12.38;9.55;;;10.70;6.70;;;;;;7391792;19;20526;-72
2023/04/30 03:30:31;;;;;;;11.45;9.20;;;10.70;5.90;;;;;;7369134;19;20332;-70
2023/04/30 03:33:01;;;;;;;12.98;9.73;;;10.70;6.30;;;;;;7370746;19;20047;-72
2023/04/30 03:35:31;;;;;;;13.95;9.60;;;10.70;6.70;;;;;;7368026;19;20061;-72
2023/04/30 03:38:01;;;;;;;13.82;10.32;;;10.60;6.60;;;;;;7370938;19;20062;-73
2023/04/30 03:40:31;;;;;;;13.65;10.25;;;10.60;7.00;;;;;;7368650;19;20021;-72
2023/04/30 03:43:01;;;;;;;12.52;9.68;;;10.60;7.50;;;;;;7392164;19;20018;-72
2023/04/30 03:45:34;;;;;;;13.80;9.93;;;10.60;6.80;;;;;;7368017;19;20028;-72
2023/04/30 03:48:04;;;;;;;13.40;9.93;;;10.60;7.60;;;;;;7370250;19;20697;-72
2023/04/30 03:50:34;;;;;;;13.00;10.05;;;10.60;7.50;;;;;;7368776;19;19999;-72
2023/04/30 03:53:04;;;;;;;14.45;10.20;;;10.60;7.10;;;;;;7370965;19;20025;-72
2023/04/30 03:55:34;;;;;;;12.70;9.48;;;10.60;7.40;;;;;;7367939;19;20014;-72
2023/04/30 03:58:04;;;;;;;14.98;10.35;;;10.60;6.10;;;;;;7392290;19;20478;-72
2023/04/30 04:00:37;;;;;;;11.85;9.93;;;10.60;6.60;;;;;;7367100;19;20082;-72
2023/04/30 04:03:07;;;;;;;12.85;9.73;;;10.60;6.40;;;;;;7368601;19;20090;-72
2023/04/30 04:05:37;;;;;;;12.43;10.18;;;10.60;6.40;;;;;;7366682;19;20478;-72
2023/04/30 04:08:08;;;;;;;13.85;10.38;;;10.60;6.20;;;;;;7370057;19;20007;-71
2023/04/30 04:10:38;;;;;;;14.93;11.10;;;10.60;6.40;;;;;;7365013;19;20017;-72
2023/04/30 04:13:08;;;;;;;14.48;10.73;;;10.60;6.40;;;;;;7391473;19;20078;-72
2023/04/30 04:15:40;;;;;;;15.15;10.85;;;10.70;6.00;;;;;;7367169;19;20379;-72
2023/04/30 04:18:10;;;;;;;17.80;11.60;;;10.70;5.90;;;;;;7369213;19;20010;-72
2023/04/30 04:20:40;;;;;;;19.88;11.45;;;10.70;5.00;;;;;;7367735;19;20443;-72
2023/04/30 04:23:10;;;;;;;14.75;11.05;;;10.70;5.10;;;;;;7369397;19;20081;-72
2023/04/30 04:25:40;;;;;;;15.60;10.80;;;10.80;5.20;;;;;;7365607;19;20074;-72
2023/04/30 04:28:10;;;;;;;14.52;11.15;;;10.70;4.30;;;;;;7372330;19;20088;-73
2023/04/30 04:30:42;;;;;;;16.92;12.07;;;10.70;4.70;;;;;;7389286;19;20018;-72
2023/04/30 04:33:12;;;;;;;17.67;12.77;;;10.80;4.90;;;;;;7368971;19;20471;-72
2023/04/30 04:35:42;;;;;;;15.75;12.48;;;10.70;4.60;;;;;;7365420;19;20011;-72
2023/04/30 04:38:12;;;;;;;17.40;12.60;;;10.70;4.60;;;;;;7368267;19;20006;-71
2023/04/30 04:40:42;;;;;;;15.82;12.55;;;10.80;4.90;;;;;;7366628;19;20021;-71
2023/04/30 04:43:12;;;;;;;12.98;10.85;;;10.80;4.70;;;;;;7368046;19;20014;-71
2023/04/30 04:45:44;;;;;;;16.73;12.05;;;10.80;4.30;;;;;;7388277;19;20336;-72
2023/04/30 04:48:14;;;;;;;16.48;11.93;;;10.80;4.10;;;;;;7368609;19;20010;-72
2023/04/30 04:50:44;;;;;;;15.95;11.70;;;10.90;4.10;;;;;;7366619;19;20094;-71
2023/04/30 04:53:14;;;;;;;15.60;11.70;;;10.80;3.90;;;;;;7368852;19;20482;-72
2023/04/30 04:55:44;;;;;;;14.93;11.60;;;10.90;4.00;;;;;;7365233;19;20014;-71
2023/04/30 04:58:14;;;;;;;16.80;12.05;;;11.00;3.40;;;;;;7369114;19;20368;-72
2023/04/30 05:00:46;;;;;;;12.82;10.98;;;10.90;3.50;;;;;;7387362;19;20026;-71
2023/04/30 05:03:17;;;;;;;17.98;12.10;;;10.90;3.20;;;;;;7368384;19;20466;-72
2023/04/30 05:05:48;;;;;;;13.95;11.48;;;10.90;2.90;;;;;;7364624;19;20021;-71
2023/04/30 05:08:18;;;;;;;16.23;12.27;;;10.90;3.50;;;;;;7367940;19;20003;-71
2023/04/30 05:10:48;;;;;;;14.98;11.27;;;11.00;2.80;;;;;;7365811;19;20006;-71
2023/04/30 05:13:18;;;;;;;15.48;11.85;;;11.00;2.30;;;;;;7368606;19;20007;-71
2023/04/30 05:15:52;;;;;;;15.80;11.70;;;11.00;2.10;;;;;;7388196;19;20081;-71
2023/04/30 05:18:22;;;;;;;17.00;12.18;;;11.00;1.00;;;;;;7367661;19;20014;-71
2023/04/30 05:20:52;;;;;;;16.83;12.48;;;11.00;1.70;;;;;;7366574;19;20043;-71
2023/04/30 05:23:22;;;;;;;15.95;12.27;;;11.10;1.00;;;;;;7371957;19;20016;-71
2023/04/30 05:25:54;;;;;;;17.00;11.65;;;11.10;1.30;;;;;;7373357;19;20095;-72
2023/04/30 05:28:24;;;;;;;14.30;11.25;;;11.10;1.40;;;;;;7374350;19;20077;-72
2023/04/30 05:30:56;;;;;;;16.02;11.80;;;11.00;1.00;;;;;;7393594;19;20038;-71
2023/04/30 05:33:26;;;;;;;16.08;11.75;;;11.10;1.00;;;;;;7373964;19;20039;-71
2023/04/30 05:35:56;;;;;;;15.73;12.23;;;11.30;1.20;;;;;;7372477;19;20007;-72
2023/04/30 05:38:26;;;;;;;15.18;11.80;;;11.40;1.00;;;;;;7373883;19;20014;-72
2023/04/30 05:40:56;;;;;;;15.20;12.02;;;11.40;1.00;;;;;;7372561;19;20359;-71
2023/04/30 05:43:26;;;;;;;15.68;12.40;;;11.40;1.00;;;;;;7373447;19;20025;-72
2023/04/30 05:45:58;;;;;;;18.25;13.23;;;11.30;1.00;;;;;;7394214;19;20007;-71
2023/04/30 05:48:28;;;;;;;15.27;11.43;;;11.40;1.00;;;;;;7373238;19;20049;-72
2023/04/30 05:50:58;;;;;;;16.50;11.98;;;11.50;1.00;;;;;;7372548;19;20098;-71
2023/04/30 05:53:29;;;;;;;15.55;11.80;;;11.60;1.00;;;;;;7372394;19;20018;-72
2023/04/30 05:55:58;;;;;;;15.30;11.55;;;11.60;1.00;;;;;;7371955;19;20015;-71
2023/04/30 05:58:28;;;;;;;16.52;12.15;;;11.80;1.00;;;;;;7372205;19;20541;-71
2023/04/30 06:01:01;;;;;;;16.42;11.82;;;11.90;1.00;;;;;;7391580;19;20505;-72
2023/04/30 06:03:31;;;;;;;14.32;10.85;;;12.00;1.00;;;;;;7371682;19;20024;-72
2023/04/30 06:06:01;;;;;;;14.30;11.25;;;12.10;1.00;;;;;;7371481;19;20010;-72
2023/04/30 06:08:31;;;;;;;17.80;11.95;;;12.10;1.00;;;;;;7371276;19;20486;-71
2023/04/30 06:11:03;;;;;;;15.82;12.48;;;12.00;1.00;;;;;;7369563;19;20094;-71
2023/04/30 06:13:33;;;;;;;14.48;11.27;;;12.10;1.00;;;;;;7372500;19;20014;-71
2023/04/30 06:16:07;;;;;;;17.75;12.32;;;12.00;1.00;;;;;;7394089;19;20014;-71
2023/04/30 06:18:37;;;;;;;16.48;12.00;;;12.20;1.00;;;;;;7372347;19;20458;-71
2023/04/30 06:21:07;;;;;;;16.42;11.45;;;12.30;1.00;;;;;;7371574;19;20091;-71
2023/04/30 06:23:37;;;;;;;14.52;10.73;;;12.40;1.00;;;;;;7371390;19;20021;-71
2023/04/30 06:26:07;;;;;;;14.13;11.40;;;12.40;1.00;;;;;;7370190;19;20018;-71
2023/04/30 06:28:37;;;;;;;15.05;11.20;;;12.70;1.00;;;;;;7372804;19;20015;-72
2023/04/30 06:31:09;;;;;;;14.48;10.82;;;12.90;1.00;;;;;;7392001;19;20043;-72
2023/04/30 06:33:39;;;;;;;14.48;10.60;;;13.30;1.00;;;;;;7370745;19;20070;-72
2023/04/30 06:36:09;;;;;;;14.10;10.73;;;13.40;1.00;;;;;;7370362;19;20021;-72
2023/04/30 06:38:40;;;;;;;13.07;10.73;;;13.40;1.00;;;;;;7371475;19;20017;-71
2023/04/30 06:41:10;;;;;;;13.00;10.00;;;13.10;1.00;;;;;;7368722;19;20019;-72
2023/04/30 06:43:40;;;;;;;12.15;9.93;;;13.20;1.00;;;;;;7371205;19;20525;-72
2023/04/30 06:46:13;;;;;;;11.98;10.05;;;13.40;1.00;;;;;;7375817;19;20014;-71
2023/04/30 06:48:44;;;;;;;13.85;9.82;;;13.40;1.00;;;;;;7393788;19;20022;-72
2023/04/30 06:51:13;;;;;;;12.77;9.88;;;13.40;1.00;;;;;;7369764;19;20007;-72
2023/04/30 06:53:43;;;;;;;16.05;9.93;;;13.30;1.00;;;;;;7371478;19;20392;-71
2023/04/30 06:56:13;;;;;;;13.95;10.25;;;13.50;1.00;;;;;;7369357;19;20667;-71
2023/04/30 06:58:43;;;;;;;14.65;10.63;;;13.40;1.00;;;;;;7370160;19;20102;-72
2023/04/30 07:01:16;;;;;;;12.35;9.80;;;13.50;1.00;;;;;;7368936;19;20078;-71
2023/04/30 07:03:46;;;;;;;11.82;9.95;;;13.20;1.00;;;;;;7393247;19;20086;-71
2023/04/30 07:06:16;;;;;;;13.93;10.25;;;13.30;1.00;;;;;;7371279;19;20515;-71
2023/04/30 07:08:46;;;;;;;11.70;9.95;;;13.40;1.00;;;;;;7371273;19;20387;-71
2023/04/30 07:11:16;;;;;;;13.70;10.35;;;13.40;1.00;;;;;;7369085;19;20090;-71
2023/04/30 07:13:46;;;;;;;12.40;9.40;;;13.70;1.00;;;;;;7371315;19;20015;-71
2023/04/30 07:16:18;;;;;;;12.55;10.13;;;13.50;1.00;;;;;;7370294;19;20002;-71
2023/04/30 07:18:49;;;;;;;13.35;9.90;;;13.40;1.00;;;;;;7392770;19;20031;-71
2023/04/30 07:21:20;;;;;;;12.93;10.68;;;13.50;1.00;;;;;;7369558;19;20015;-71
2023/04/30 07:23:50;;;;;;;13.90;9.95;;;13.50;1.00;;;;;;7369774;19;20020;-70
2023/04/30 07:26:20;;;;;;;14.52;10.05;;;13.60;1.00;;;;;;7369041;19;20007;-71
2023/04/30 07:28:50;;;;;;;12.10;9.65;;;13.90;1.00;;;;;;7370426;19;20007;-70
2023/04/30 07:31:23;;;;;;;12.00;9.35;;;13.80;1.00;;;;;;7370420;19;20010;-71
2023/04/30 07:33:54;;;;;;;12.30;9.90;;;13.40;1.00;;;;;;7391396;19;20394;-72
2023/04/30 07:36:26;;;;;;;10.18;9.00;;;13.40;1.00;;;;;;7368834;19;20018;-71
2023/04/30 07:38:56;;;;;;;14.15;10.02;;;13.90;1.00;;;;;;7370143;19;20069;-71
2023/04/30 07:41:26;;;;;;;12.75;9.15;;;13.90;1.00;;;;;;7368410;19;20367;-72
2023/04/30 07:43:56;;;;;;;10.48;8.68;;;14.00;1.00;;;;;;7367600;19;20090;-71
2023/04/30 07:46:28;;;;;;;10.80;8.63;;;14.40;1.00;;;;;;7367496;19;20019;-71
2023/04/30 07:48:58;;;;;;;12.10;8.63;;;14.40;1.00;;;;;;7390948;19;20010;-71
2023/04/30 07:51:28;;;;;;;12.30;8.23;;;14.30;1.00;;;;;;7368400;19;20053;-72
2023/04/30 07:53:58;;;;;;;11.70;8.40;;;14.10;1.00;;;;;;7367717;19;20011;-72
2023/04/30 07:56:28;;;;;;;9.27;7.70;;;14.30;1.00;;;;;;7367235;19;20035;-70
2023/04/30 07:58:58;;;;;;;9.10;7.47;;;14.50;1.00;;;;;;7368866;19;20022;-71
2023/04/30 08:01:31;;;;;;;9.30;7.35;;;14.60;1.00;;;;;;7369413;19;20014;-71
2023/04/30 08:04:01;;;;;;;10.68;7.80;;;14.50;1.00;;;;;;7389127;19;20006;-70
2023/04/30 08:06:31;;;;;;;10.02;7.97;;;14.60;1.00;;;;;;7368166;19;20017;-71
2023/04/30 08:09:01;;;;;;;9.90;7.60;;;14.60;1.00;;;;;;7368724;19;20017;-72
2023/04/30 08:11:30;;;;;;;8.38;6.88;;;14.60;1.00;;;;;;7368345;19;20010;-71
2023/04/30 08:14:00;;;;;;;8.07;6.30;;;14.50;1.00;;;;;;7366657;19;20014;-71
2023/04/30 08:16:33;;;;;;;8.18;5.82;;;14.60;1.00;;;;;;7368158;19;20463;-72
2023/04/30 08:19:03;;;;;;;6.10;5.40;;;14.60;1.00;;;;;;7390317;19;20015;-72
2023/04/30 08:21:34;;;;;;;7.10;5.53;;;14.60;1.00;;;;;;7368379;19;20006;-72
2023/04/30 08:24:04;;;;;;;6.70;5.72;;;14.60;1.00;;;;;;7365478;19;20032;-72
2023/04/30 08:26:33;;;;;;;6.03;5.13;;;14.70;1.00;;;;;;7366871;19;20011;-71
2023/04/30 08:29:03;;;;;;;6.82;5.82;;;14.80;1.00;;;;;;7367793;19;20015;-73
2023/04/30 08:31:36;;;;;;;6.78;5.90;;;14.50;1.00;;;;;;7368534;19;20010;-73
2023/04/30 08:34:06;;;;;;;7.70;5.60;;;14.70;1.00;;;;;;7388455;19;20025;-72
2023/04/30 08:36:36;;;;;;;6.25;5.18;;;15.00;1.00;;;;;;7368486;19;20074;-71
2023/04/30 08:39:06;;;;;;;4.80;4.30;;;14.90;1.00;;;;;;7367259;19;20014;-71
2023/04/30 08:41:39;;;;;;;5.05;4.40;;;14.60;1.00;;;;;;7367710;19;20394;-71
2023/04/30 08:44:12;;;;;;;5.22;4.57;;;15.10;1.00;;;;;;7366544;19;20018;-71
2023/04/30 08:46:46;;;;;;;6.50;4.28;;;14.90;1.00;;;;;;7367347;19;20492;-70
2023/04/30 08:49:16;;;;;;;5.13;3.80;;;15.10;1.00;;;;;;7367392;19;20081;-71
2023/04/30 08:51:48;;;;;;;4.60;3.67;;;15.40;1.00;;;;;;7388235;19;20482;-71
2023/04/30 08:54:19;;;;;;;4.55;4.07;;;15.50;1.00;;;;;;7365780;19;20359;-72
2023/04/30 08:56:50;;;;;;;3.88;3.47;;;15.30;1.00;;;;;;7369170;19;20352;-72
2023/04/30 08:59:20;;;;;;;4.28;3.50;;;15.30;1.00;;;;;;7374268;19;20369;-71
2023/04/30 09:01:52;;;;;;;4.00;3.50;;;15.60;1.00;;;;;;7375083;19;20501;-71
2023/04/30 09:04:22;;;;;;;3.55;3.00;;;15.50;1.00;;;;;;7372391;19;20372;-71
2023/04/30 09:06:57;;;;;;;3.45;2.97;;;15.40;1.00;;;;;;7395015;19;20011;-72
2023/04/30 09:09:31;;;;;;;3.53;2.80;;;15.50;1.00;;;;;;7372680;19;20057;-71
2023/04/30 09:12:16;;;;;;;4.43;3.00;;;15.50;1.00;;;;;;7374851;19;20017;-71
2023/04/30 09:15:04;;;;;;;4.40;3.08;;;15.50;1.00;;;;;;7371878;19;20010;-71
2023/04/30 09:17:37;;;;;;;3.28;2.97;;;15.60;1.00;;;;;;7374295;19;20352;-71
2023/04/30 09:20:12;;;;;;;3.42;2.80;;;15.60;1.00;;;;;;7373823;19;20042;-71
2023/04/30 09:22:43;;;;;;;4.25;3.20;;;15.50;1.00;;;;;;7374047;19;20478;-71
2023/04/30 09:25:13;;;;;;;3.83;3.25;;;15.70;1.00;;;;;;7372709;19;20473;-72
2023/04/30 09:27:44;;;;;;;4.45;3.28;;;15.70;1.00;;;;;;7393060;19;20423;-71
2023/04/30 09:30:32;;;;;;;4.10;3.70;;;15.60;1.00;;;;;;7371608;19;20025;-72
2023/04/30 09:33:05;;;;;;;5.03;3.47;;;15.50;1.00;;;;;;7373773;19;20018;-71
2023/04/30 09:35:41;;;;;;;5.53;3.72;;;15.50;1.00;;;;;;7372075;19;20082;-70
2023/04/30 09:38:29;;;;;;;4.63;3.67;;;15.50;1.00;;;;;;7373146;19;20026;-71
2023/04/30 09:41:00;;;;;;;4.85;3.90;;;15.50;1.00;;;;;;7372266;19;20015;-71
2023/04/30 09:43:31;;;;;;;4.53;3.50;;;15.50;1.00;;;;;;7372861;19;20514;-71
2023/04/30 09:46:01;;;;;;;5.35;3.20;;;15.60;1.00;;;;;;7393432;19;20015;-72
2023/04/30 09:48:34;;;;;;;3.65;3.20;;;15.90;1.00;;;;;;7371722;19;20478;-71
2023/04/30 09:51:05;;;;;;;5.50;3.35;;;16.00;1.00;;;;;;7371506;19;20339;-71
2023/04/30 09:53:38;;;;;;;4.47;3.53;;;15.70;1.00;;;;;;7371245;19;20018;-70
2023/04/30 09:56:09;;;;;;;3.45;3.08;;;15.80;1.00;;;;;;7372403;19;20018;-71
2023/04/30 09:58:40;;;;;;;3.63;3.10;;;15.60;1.00;;;;;;7372487;19;20010;-71
2023/04/30 10:01:10;;;;;;;7.95;3.10;;;16.30;1.00;;;;;;7378052;19;20010;-71
2023/04/30 10:03:47;;;;;;;3.83;3.00;;;16.30;1.00;;;;;;7393096;19;20006;-71
2023/04/30 10:06:18;;;;;;;4.75;3.22;;;16.20;1.00;;;;;;7372311;19;20010;-71
2023/04/30 10:08:50;;;;;;;4.07;3.25;;;16.10;1.00;;;;;;7369543;19;20489;-71
2023/04/30 10:11:22;;;;;;;3.85;3.33;;;16.20;1.00;;;;;;7371594;19;20015;-71
2023/04/30 10:13:56;;;;;;;5.10;3.38;;;16.20;1.00;;;;;;7370970;19;20851;-71
2023/04/30 10:16:35;;;;;;;8.43;5.88;;;16.40;1.00;;;;;;7373076;19;20032;-70
2023/04/30 10:19:13;;;;;;;5.68;4.75;;;16.50;1.00;;;;;;7394239;19;20363;-71
2023/04/30 10:21:47;;;;;;;12.65;11.18;;;16.10;1.00;;;;;;7373326;19;20023;-71
2023/04/30 10:24:18;;;;;;;5.30;3.90;;;16.50;1.00;;;;;;7369169;19;20434;-71
2023/04/30 10:26:49;;;;;;;4.20;3.15;;;16.30;1.00;;;;;;7370531;19;20330;-71
2023/04/30 10:29:19;;;;;;;3.45;2.92;;;16.10;1.00;;;;;;7370919;19;20016;-71
2023/04/30 10:31:52;;;;;;;4.22;3.10;;;16.30;1.00;;;;;;7372514;19;20487;-71
2023/04/30 10:34:36;;;;;;;4.45;2.90;;;16.20;1.00;;;;;;7369556;19;20019;-72
2023/04/30 10:37:08;;;;;;;;;;;16.10;1.00;;;;;;7395348;19;20013;-72
2023/04/30 10:39:40;;;;;;;3.83;3.30;;;16.20;1.00;;;;;;7370646;19;19926;-71
2023/04/30 10:42:12;;;;;;;4.72;3.33;;;16.20;1.00;;;;;;7369692;19;20474;-71
2023/04/30 10:44:42;;;;;;;4.18;3.00;;;16.10;1.00;;;;;;7369113;19;20006;-71
2023/04/30 10:47:12;;;;;;;3.83;3.17;;;16.30;1.00;;;;;;7370617;19;20002;-71
2023/04/30 10:49:47;;;;;;;5.05;3.40;;;16.10;1.00;;;;;;7370018;19;20027;-72
2023/04/30 10:52:29;;;;;;;4.63;3.30;;;16.20;1.00;;;;;;7372377;19;20078;-71
2023/04/30 10:55:00;;;;;;;4.15;2.70;;;16.10;1.00;;;;;;7390464;19;20019;-71
2023/04/30 10:57:31;;;;;;;18.13;3.40;;;16.30;1.00;;;;;;7371029;19;20017;-71
2023/04/30 11:00:27;;;;;;;3.72;3.30;;;16.10;1.00;;;;;;7369312;19;20029;-71
2023/04/30 11:03:04;;;;;;;3.80;2.92;;;16.30;1.00;;;;;;7371243;19;20025;-72
2023/04/30 11:05:40;;;;;;;3.10;2.80;;;16.40;1.00;;;;;;7369503;19;20089;-70
2023/04/30 11:08:13;;;;;;;5.45;3.83;;;16.50;1.00;;;;;;7371448;19;20007;-72
2023/04/30 11:11:00;;;;;;;6.78;3.80;;;16.30;1.00;;;;;;7368713;19;20374;-71
2023/04/30 11:13:30;;;;;;;4.18;3.70;;;15.90;1.00;;;;;;7369551;19;20019;-71
2023/04/30 11:16:05;;;;;;;3.83;3.45;;;16.30;1.00;;;;;;7392089;19;20022;-71
2023/04/30 11:18:35;;;;;;;5.15;3.22;;;16.70;1.00;;;;;;7371083;19;20021;-71
2023/04/30 11:21:10;;;;;;;5.22;3.80;;;16.60;1.00;;;;;;7367639;19;20034;-71
2023/04/30 11:23:43;;;;;;;4.25;3.70;;;16.80;1.00;;;;;;7368966;19;20006;-71
2023/04/30 11:26:13;;;;;;;4.70;3.88;;;17.20;1.00;;;;;;7369972;19;20019;-71
2023/04/30 11:28:53;;;;;;;4.05;3.60;;;17.50;1.00;;;;;;7369010;19;20011;-71
2023/04/30 11:31:23;;;;;;;5.57;4.05;;;17.10;1.00;;;;;;7368391;19;20047;-71
2023/04/30 11:33:57;;;;;;;4.22;3.83;;;17.10;1.00;;;;;;7390039;19;20082;-71
2023/04/30 11:36:33;;;;;;;5.88;3.75;;;16.90;1.00;;;;;;7369705;19;20014;-71
2023/04/30 11:39:06;;;;;;;4.35;3.80;;;17.10;1.00;;;;;;7368570;19;20014;-70
2023/04/30 11:41:42;;;;;;;6.57;4.20;;;16.90;1.00;;;;;;7368737;19;20070;-70
2023/04/30 11:44:24;;;;;;;4.97;3.83;;;16.90;1.00;;;;;;7367605;19;20018;-72
2023/04/30 11:46:54;;;;;;;7.13;3.88;;;17.20;1.00;;;;;;7371017;19;20034;-71
2023/04/30 11:49:25;;;;;;;5.22;3.78;;;17.40;1.00;;;;;;7369060;19;20349;-70
2023/04/30 11:51:57;;;;;;;5.35;3.88;;;17.30;1.00;;;;;;7392037;19;20024;-71
2023/04/30 11:54:27;;;;;;;7.30;3.92;;;17.00;1.00;;;;;;7367668;19;20011;-71
2023/04/30 11:57:02;;;;;;;5.30;4.20;;;17.10;1.00;;;;;;7369672;19;20010;-71
2023/04/30 11:59:33;;;;;;;4.57;3.75;;;17.20;1.00;;;;;;7367640;19;20018;-72
2023/04/30 12:02:03;;;;;;;4.18;3.70;;;16.80;1.00;;;;;;7370545;19;20033;-72
2023/04/30 12:04:33;;;;;;;4.80;3.70;;;16.90;1.00;;;;;;7368009;19;20006;-71
2023/04/30 12:07:09;;;;;;;5.88;3.72;;;16.90;1.00;;;;;;7391933;19;20015;-71
2023/04/30 12:09:54;;;;;;;4.40;3.67;;;17.20;1.00;;;;;;7367833;19;20772;-72
2023/04/30 12:12:30;;;;;;;3.75;3.38;;;17.40;1.00;;;;;;7369021;19;20360;-71
2023/04/30 12:15:12;;;;;;;4.18;3.28;;;17.70;1.00;;;;;;7365926;19;20473;-70
2023/04/30 12:17:42;;;;;;;3.42;3.13;;;17.40;1.00;;;;;;7369427;19;20034;-71
2023/04/30 12:20:14;;;;;;;3.88;3.50;;;17.20;1.00;;;;;;7366500;19;20007;-71
2023/04/30 12:22:47;;;;;;;3.45;2.90;;;17.40;1.00;;;;;;7367894;19;20038;-71
2023/04/30 12:25:18;;;;;;;3.93;3.23;;;17.40;1.00;;;;;;7366374;19;20046;-73
2023/04/30 12:27:50;;;;;;;4.72;3.15;;;17.30;1.00;;;;;;7390659;19;20093;-71
2023/04/30 12:30:21;;;;;;;4.90;3.20;;;17.10;1.00;;;;;;7365624;19;20017;-71
2023/04/30 12:32:53;;;;;;;4.38;3.38;;;17.10;1.00;;;;;;7366624;19;20591;-72
2023/04/30 12:35:25;;;;;;;4.72;3.30;;;17.40;1.00;;;;;;7364211;19;20027;-70
2023/04/30 12:38:05;;;;;;;5.03;3.05;;;17.10;1.00;;;;;;7367281;19;20018;-71
2023/04/30 12:40:35;;;;;;;3.95;2.83;;;17.00;1.00;;;;;;7366855;19;20206;-71
2023/04/30 12:43:06;;;;;;;5.30;3.05;;;17.00;1.00;;;;;;7390787;19;20010;-71
2023/04/30 12:45:49;;;;;;;7.88;4.38;;;17.10;1.00;;;;;;7366458;19;20015;-71
2023/04/30 12:48:22;;;;;;;4.57;3.25;;;17.10;1.00;;;;;;7366466;19;20265;-71
2023/04/30 12:50:57;;;;;;;3.63;2.88;;;16.90;1.00;;;;;;7367163;19;20027;-72
2023/04/30 12:53:30;;;;;;;5.18;3.15;;;17.00;1.00;;;;;;7367613;19;20011;-72
2023/04/30 12:56:11;;;;;;;3.05;2.85;;;17.30;1.00;;;;;;7368099;19;20474;-71
2023/04/30 12:58:44;;;;;;;5.78;3.90;;;16.90;1.00;;;;;;7365657;19;20010;-72
2023/04/30 13:01:15;;;;;;;5.72;3.67;;;17.20;1.00;;;;;;7365108;19;20010;-71
2023/04/30 13:03:45;;;;;;;5.05;3.38;;;17.10;1.00;;;;;;7386870;19;20026;-72
2023/04/30 13:06:15;;;;;;;5.05;3.58;;;17.10;1.00;;;;;;7367767;19;20013;-71
2023/04/30 13:08:48;;;;;;;4.43;3.33;;;17.00;1.00;;;;;;7365742;19;20031;-71
2023/04/30 13:11:27;;;;;;;3.60;3.28;;;17.00;1.00;;;;;;7367512;19;20013;-73
2023/04/30 13:13:57;;;;;;;4.95;3.10;;;17.10;1.00;;;;;;7365125;19;20038;-70
2023/04/30 13:16:27;;;;;;;5.28;3.63;;;17.00;1.00;;;;;;7367214;19;20473;-72